Time;durP1;ratioP1;P1;durP2;ratioP2;P2;SDS_P1;SDS_P2;PMS_P1;PMS_P2;Temp;Humidity;BMP_temperature;BMP_pressure;BME280_temperature;BME280_humidity;BME280_pressure;Samples;Min_cycle;Max_cycle;Signal;HPM_P1;HPM_P2
2021/09/26 10:24:00;;;;;;;;;8.00;6.50;;;;;29.87;33.58;101376.50;146619;586;46012;-76
2021/09/26 10:26:35;;;;;;;;;6.67;5.00;;;;;30.85;33.29;101537.91;146638;661;45020;-80
2021/09/26 10:29:12;;;;;;;;;5.00;5.00;;;;;30.80;33.32;101539.78;146633;578;45026;-80
2021/09/26 10:31:48;;;;;;;;;7.67;5.67;;;;;30.79;32.66;101536.25;146637;665;45020;-81
2021/09/26 10:34:31;;;;;;;;;4.67;4.67;;;;;30.84;33.20;101525.44;146634;570;45910;-80
2021/09/26 10:37:10;;;;;;;;;7.00;7.00;;;;;30.85;33.50;101532.56;146637;693;45020;-80
2021/09/26 10:39:55;;;;;;;;;8.50;7.25;;;;;30.80;32.10;101521.94;146632;588;45915;-79
2021/09/26 10:42:37;;;;;;;;;6.00;6.00;;;;;30.68;32.19;101524.81;146633;575;45020;-79
2021/09/26 10:45:12;;;;;;;;;7.50;6.75;;;;;30.53;32.95;101519.75;146636;651;44913;-78
2021/09/26 10:47:56;;;;;;;;;4.33;4.33;;;;;30.30;32.84;101520.19;146637;564;45008;-80
2021/09/26 10:50:44;;;;;;;;;5.00;4.00;;;;;30.08;32.91;101517.87;146632;576;45020;-79
2021/09/26 10:53:18;;;;;;;;;7.00;5.25;;;;;30.00;32.65;101509.09;146636;624;45020;-84
2021/09/26 10:55:52;;;;;;;;;6.00;6.00;;;;;30.06;32.93;101506.31;146633;566;45020;-83
2021/09/26 10:58:26;;;;;;;;;5.00;5.00;;;;;30.13;31.23;101501.75;146637;573;45025;-83
2021/09/26 11:01:03;;;;;;;;;3.67;3.67;;;;;30.18;32.08;101499.84;146636;566;45010;-87
2021/09/26 11:03:45;;;;;;;;;5.67;4.67;;;;;30.20;31.20;101497.19;146636;563;45910;-83
2021/09/26 11:06:28;;;;;;;;;5.00;5.00;;;;;29.93;30.60;101432.56;146637;633;45016;-83
2021/09/26 11:09:06;;;;;;;;;7.00;3.00;;;;;30.19;29.33;101482.91;146618;584;46020;-84
2021/09/26 11:11:50;;;;;;;;;8.00;6.00;;;;;30.24;31.25;101481.06;146635;624;45016;-82
2021/09/26 11:14:24;;;;;;;;;6.00;5.00;;;;;30.36;31.21;101477.28;146636;606;45021;-84
2021/09/26 11:17:03;;;;;;;;;8.00;6.75;;;;;30.54;30.72;101479.59;146637;691;45021;-83
2021/09/26 11:19:37;;;;;;;;;6.00;6.00;;;;;30.69;28.76;101473.06;146636;563;45010;-84
2021/09/26 11:22:20;;;;;;;;;6.50;6.00;;;;;30.78;28.61;101463.97;146634;630;45913;-83
2021/09/26 11:25:01;;;;;;;;;4.67;4.67;;;;;30.83;28.51;101468.31;146630;626;47008;-84
2021/09/26 11:27:41;;;;;;;;;4.00;3.00;;;;;30.80;27.76;101462.16;146617;577;45912;-84
2021/09/26 11:30:18;;;;;;;;;5.00;5.00;;;;;30.72;26.64;101459.63;146615;569;47010;-85
2021/09/26 11:33:00;;;;;;;;;6.67;5.67;;;;;30.66;28.63;101470.44;146619;603;46016;-83
2021/09/26 11:35:36;;;;;;;;;5.00;5.00;;;;;30.59;28.65;101463.44;146616;602;46020;-83
2021/09/26 11:38:12;;;;;;;;;3.33;3.00;;;;;30.52;26.79;101462.69;146620;639;46015;-85
2021/09/26 11:41:10;;;;;;;;;4.00;4.00;;;;;29.49;29.37;101292.53;146618;592;47010;-84
2021/09/26 11:43:48;;;;;;;;;3.33;3.00;;;;;30.43;29.31;101457.50;146618;569;46017;-82
2021/09/26 11:46:28;;;;;;;;;4.00;4.00;;;;;30.44;26.78;101445.00;146622;579;46008;-83
2021/09/26 11:49:04;;;;;;;;;3.33;3.33;;;;;30.51;26.90;101447.53;146615;566;47018;-82
2021/09/26 11:51:39;;;;;;;;;6.00;6.00;;;;;30.58;27.15;101443.81;146622;688;47006;-83
2021/09/26 11:54:14;;;;;;;;;4.33;3.67;;;;;30.55;26.54;101441.22;146620;612;46032;-84
2021/09/26 11:56:48;;;;;;;;;5.33;4.67;;;;;30.48;26.93;101441.38;146621;572;47008;-82
2021/09/26 11:59:22;;;;;;;;;5.67;4.33;;;;;30.42;27.48;101439.69;146616;657;47913;-85
2021/09/26 12:01:56;;;;;;;;;3.00;3.00;;;;;30.39;26.82;101437.09;146613;590;46020;-81
2021/09/26 12:04:30;;;;;;;;;5.00;4.00;;;;;30.45;28.19;101431.62;146620;642;46010;-83
2021/09/26 12:07:06;;;;;;;;;4.00;4.00;;;;;30.54;25.93;101430.56;146620;592;46021;-82
2021/09/26 12:09:46;;;;;;;;;4.33;4.33;;;;;30.67;28.70;101425.81;146618;622;46016;-84
2021/09/26 12:12:25;;;;;;;;;5.50;5.50;;;;;30.76;27.70;101417.59;146620;638;46020;-82
2021/09/26 12:15:12;;;;;;;;;4.00;4.00;;;;;30.84;28.52;101415.66;146619;579;46017;-81
2021/09/26 12:18:00;;;;;;;;;5.00;5.00;;;;;30.93;26.36;101414.56;146623;688;46020;-82
2021/09/26 12:20:33;;;;;;;;;3.33;3.33;;;;;30.97;25.79;101411.81;146618;603;47010;-83
2021/09/26 12:23:08;;;;;;;;;4.33;3.67;;;;;30.96;26.95;101404.66;146622;593;46008;-82
2021/09/26 12:25:42;;;;;;;;;3.33;3.00;;;;;30.96;22.52;101396.63;146615;586;46016;-83
2021/09/26 12:28:21;;;;;;;;;4.00;4.00;;;;;30.87;24.53;101393.28;146617;574;47010;-83
2021/09/26 12:30:59;;;;;;;;;4.33;4.00;;;;;30.80;24.59;101393.41;146618;619;47010;-82
2021/09/26 12:33:48;;;;;;;;;3.00;3.00;;;;;30.71;24.79;101387.34;146622;583;46020;-83
2021/09/26 12:36:26;;;;;;;;;4.00;4.00;;;;;30.66;25.39;101375.87;146617;583;46018;-82
2021/09/26 12:39:01;;;;;;;;;4.00;4.00;;;;;30.65;25.54;101380.34;146622;618;46010;-82
2021/09/26 12:41:41;;;;;;;;;4.00;4.00;;;;;30.57;27.63;101374.28;146621;598;46016;-83
2021/09/26 12:44:16;;;;;;;;;4.67;4.00;;;;;30.47;26.96;101373.59;146621;685;46021;-82
2021/09/26 12:46:50;;;;;;;;;5.67;3.33;;;;;30.38;29.58;101366.63;146618;623;46016;-82
2021/09/26 12:49:29;;;;;;;;;5.33;5.00;;;;;30.36;31.23;101368.44;146621;570;46021;-83
2021/09/26 12:52:13;;;;;;;;;7.25;5.25;;;;;30.33;30.94;101368.50;146617;614;46017;-83
2021/09/26 12:54:52;;;;;;;;;7.00;7.00;;;;;30.32;31.33;101374.78;146611;608;46020;-84
2021/09/26 12:57:28;;;;;;;;;6.00;5.00;;;;;30.29;31.72;101366.81;146620;678;46011;-82
2021/09/26 13:00:23;;;;;;;;;7.33;7.33;;;;;30.26;32.58;101361.53;146623;598;46020;-83
2021/09/26 13:03:04;;;;;;;;;6.00;6.00;;;;;30.22;33.71;101359.84;146620;712;46010;-82
2021/09/26 13:05:45;;;;;;;;;7.67;5.67;;;;;30.10;33.93;101355.59;146620;615;49010;-82
2021/09/26 13:08:31;;;;;;;;;7.00;6.00;;;;;30.01;32.93;101355.75;146614;598;46012;-84
2021/09/26 13:11:31;;;;;;;;;8.00;6.25;;;;;30.00;33.65;101353.09;146621;690;46008;-82
2021/09/26 13:14:42;;;;;;;;;8.00;6.00;;;;;29.96;34.09;101352.28;146621;585;46010;-82
2021/09/26 13:17:20;;;;;;;;;6.00;6.00;;;;;29.93;34.11;101337.19;146624;591;46008;-83
2021/09/26 13:19:56;;;;;;;;;8.00;6.00;;;;;29.97;34.41;101342.47;146618;621;46017;-85
2021/09/26 13:22:33;;;;;;;;;7.67;6.67;;;;;29.96;34.79;101335.37;146616;589;46008;-83
2021/09/26 13:25:41;;;;;;;;;8.33;6.67;;;;;29.92;35.35;101330.06;146618;629;47020;-82
2021/09/26 13:28:21;;;;;;;;;8.00;8.00;;;;;29.98;35.08;101334.44;146625;599;46021;-80
2021/09/26 13:31:26;;;;;;;;;5.00;5.00;;;;;29.92;35.77;101332.75;146619;579;47010;-82
2021/09/26 13:34:11;;;;;;;;;5.00;5.00;;;;;29.86;36.55;101332.88;146623;656;46008;-80
2021/09/26 13:36:58;;;;;;;;;5.00;5.00;;;;;29.79;37.86;101319.66;146617;649;46017;-80
2021/09/26 13:39:59;;;;;;;;;6.33;6.33;;;;;28.70;37.12;101151.50;146620;576;46020;-84
2021/09/26 13:42:54;;;;;;;;;5.67;5.00;;;;;29.56;41.08;101315.56;146622;565;46011;-82
2021/09/26 13:45:28;;;;;;;;;6.67;6.67;;;;;29.42;42.52;101318.50;146621;569;46020;-81
2021/09/26 13:48:05;;;;;;;;;5.00;5.00;;;;;29.30;41.68;101313.34;146622;621;46016;-81
2021/09/26 13:50:40;;;;;;;;;7.00;6.50;;;;;29.18;41.40;101318.91;146615;651;46021;-82
2021/09/26 13:53:18;;;;;;;;;6.33;5.67;;;;;29.08;41.07;101314.63;146617;649;46016;-81
2021/09/26 13:55:53;;;;;;;;;7.00;7.00;;;;;29.05;43.94;101315.56;146622;570;46009;-81
2021/09/26 13:58:27;;;;;;;;;6.00;6.00;;;;;28.98;45.58;101309.41;146617;570;46913;-81
2021/09/26 14:01:01;;;;;;;;;7.67;7.67;;;;;28.91;42.75;101309.50;146621;602;46020;-81
2021/09/26 14:03:35;;;;;;;;;6.33;6.33;;;;;28.84;43.96;101308.72;146617;628;46030;-82
2021/09/26 14:06:09;;;;;;;;;6.00;6.00;;;;;28.81;43.35;101307.87;146619;589;46020;-82
2021/09/26 14:08:43;;;;;;;;;6.00;6.00;;;;;28.77;45.82;101294.59;146617;569;46016;-83
2021/09/26 14:11:18;;;;;;;;;6.33;6.00;;;;;28.76;43.50;101298.16;146622;578;46021;-81
2021/09/26 14:13:52;;;;;;;;;3.00;3.00;;;;;28.73;46.15;101298.22;146618;591;46913;-85
2021/09/26 14:16:28;;;;;;;;;6.00;5.33;;;;;28.71;43.81;101293.81;146618;566;46008;-82
2021/09/26 14:19:02;;;;;;;;;6.33;6.33;;;;;28.71;45.07;101292.00;146619;578;46011;-82
2021/09/26 14:21:36;;;;;;;;;6.67;5.67;;;;;28.67;43.66;101284.09;146622;584;47008;-81
2021/09/26 14:24:10;;;;;;;;;8.00;6.67;;;;;28.62;44.19;101284.13;146617;578;46016;-82
2021/09/26 14:26:45;;;;;;;;;5.33;5.33;;;;;28.41;46.40;101284.44;146624;605;46008;-83
2021/09/26 14:29:19;;;;;;;;;10.00;6.00;;;;;28.26;45.23;101282.84;146622;567;45020;-81
2021/09/26 14:31:54;;;;;;;;;7.00;6.00;;;;;28.06;47.12;101291.94;146620;594;47008;-84
2021/09/26 14:34:29;;;;;;;;;5.00;5.00;;;;;27.85;45.92;101270.87;146616;685;46017;-81
2021/09/26 14:37:03;;;;;;;;;6.67;5.67;;;;;27.83;45.79;101276.25;146622;613;46020;-79
2021/09/26 14:39:38;;;;;;;;;5.67;5.67;;;;;27.82;46.36;101269.16;146617;588;46016;-82
2021/09/26 14:42:12;;;;;;;;;8.67;6.00;;;;;27.85;45.61;101274.44;146614;611;46021;-80
2021/09/26 14:44:47;;;;;;;;;5.00;5.00;;;;;27.85;47.27;101263.78;146618;632;46016;-83
2021/09/26 14:47:29;;;;;;;;;8.33;6.00;;;;;27.87;44.95;101255.75;146621;571;46011;-80
2021/09/26 14:50:03;;;;;;;;;7.00;6.50;;;;;27.94;46.30;101259.22;146616;674;46010;-82
2021/09/26 14:52:39;;;;;;;;;6.00;5.00;;;;;28.02;46.31;101254.69;146622;630;46008;-82
2021/09/26 14:55:17;;;;;;;;;5.00;5.00;;;;;28.09;45.38;101262.59;146622;656;45913;-82
2021/09/26 14:57:51;;;;;;;;;6.00;5.33;;;;;28.15;45.72;101253.63;146621;573;46051;-81
2021/09/26 15:00:32;;;;;;;;;6.25;6.25;;;;;28.17;44.62;101259.84;146617;604;47020;-82
2021/09/26 15:03:06;;;;;;;;;7.00;6.00;;;;;28.18;45.64;101258.94;146622;566;46008;-82
2021/09/26 15:05:40;;;;;;;;;7.67;7.00;;;;;28.16;45.64;101258.06;146619;569;47010;-81
2021/09/26 15:08:15;;;;;;;;;6.00;6.00;;;;;28.12;45.98;101253.66;146615;594;46008;-82
2021/09/26 15:10:49;;;;;;;;;9.00;7.00;;;;;28.04;50.41;101259.12;146618;632;46017;-83
2021/09/26 15:13:23;;;;;;;;;7.00;7.00;;;;;27.97;47.15;101249.41;146618;599;46020;-82
2021/09/26 15:15:56;;;;;;;;;6.50;5.75;;;;;27.83;50.18;101251.38;146614;616;46016;-83
2021/09/26 15:18:31;;;;;;;;;5.00;5.00;;;;;27.62;49.30;101244.47;146617;678;46028;-84
2021/09/26 15:21:07;;;;;;;;;5.25;5.25;;;;;27.51;47.30;101241.03;146618;576;46016;-82
2021/09/26 15:23:41;;;;;;;;;5.00;5.00;;;;;27.40;50.99;101247.34;146623;571;46020;-85
2021/09/26 15:26:15;;;;;;;;;9.00;7.00;;;;;27.37;47.56;101246.50;146619;678;46010;-84
2021/09/26 15:28:50;;;;;;;;;7.00;7.00;;;;;27.23;52.21;101236.00;146624;570;46006;-81
2021/09/26 15:31:24;;;;;;;;;6.00;6.00;;;;;27.21;48.98;101245.75;146621;586;46016;-83
2021/09/26 15:33:59;;;;;;;;;7.25;7.00;;;;;27.17;48.22;101238.72;146618;668;46021;-82
2021/09/26 15:36:33;;;;;;;;;5.50;5.50;;;;;27.17;48.93;101238.72;146617;618;46016;-82
2021/09/26 15:39:07;;;;;;;;;6.50;6.50;;;;;27.22;48.53;101239.53;146620;578;47010;-83
2021/09/26 15:41:41;;;;;;;;;7.00;7.00;;;;;27.28;48.52;101249.25;146619;690;46016;-84
2021/09/26 15:44:21;;;;;;;;;7.75;6.50;;;;;27.31;47.49;101247.44;146619;576;47010;-83
2021/09/26 15:46:55;;;;;;;;;8.25;6.75;;;;;27.36;46.59;101244.75;146618;639;47011;-82
2021/09/26 15:49:29;;;;;;;;;7.00;7.00;;;;;27.40;47.71;101235.81;146623;612;46023;-84
2021/09/26 15:52:04;;;;;;;;;5.25;5.25;;;;;27.38;47.67;101249.16;146617;641;46030;-83
2021/09/26 15:54:38;;;;;;;;;8.00;7.00;;;;;27.33;47.21;101250.09;146620;636;46008;-85
2021/09/26 15:57:11;;;;;;;;;6.00;6.00;;;;;27.28;47.42;101249.25;146615;646;46010;-84
2021/09/26 15:59:45;;;;;;;;;7.00;6.00;;;;;27.27;47.12;101248.38;146612;569;46020;-84
2021/09/26 16:02:19;;;;;;;;;6.67;6.00;;;;;27.24;48.89;101245.75;146619;592;46010;-86
2021/09/26 16:04:53;;;;;;;;;7.00;6.00;;;;;27.17;45.63;101238.72;146620;589;46020;-84
2021/09/26 16:07:28;;;;;;;;;7.00;6.00;;;;;27.10;47.63;101243.19;146620;579;47010;-86
2021/09/26 16:10:02;;;;;;;;;7.00;6.67;;;;;27.05;46.99;101237.00;146622;564;46021;-85
2021/09/26 16:12:37;;;;;;;;;6.00;6.00;;;;;26.97;47.55;101245.94;146617;678;46016;-85
2021/09/26 16:15:14;;;;;;;;;8.50;7.25;;;;;26.91;47.91;101239.75;146621;647;46029;-85
2021/09/26 16:17:48;;;;;;;;;6.33;6.33;;;;;26.85;46.22;101234.50;146620;590;46017;-84
2021/09/26 16:20:25;;;;;;;;;5.00;5.00;;;;;25.95;46.20;101087.09;146623;670;46008;-84
2021/09/26 16:23:01;;;;;;;;;8.00;7.00;;;;;26.81;46.28;101230.09;146622;646;46028;-84
2021/09/26 16:25:37;;;;;;;;;5.75;5.25;;;;;26.81;46.60;101226.56;146618;644;46028;-83
2021/09/26 16:28:13;;;;;;;;;8.25;7.00;;;;;26.78;46.43;101229.25;146617;607;46016;-85
2021/09/26 16:30:48;;;;;;;;;5.33;5.33;;;;;26.76;46.55;101233.69;146622;563;46020;-85
2021/09/26 16:33:25;;;;;;;;;7.00;7.00;;;;;26.75;46.92;101242.56;146618;578;46017;-85
2021/09/26 16:36:00;;;;;;;;;7.33;7.00;;;;;26.70;47.41;101230.19;146622;583;46020;-85
2021/09/26 16:38:34;;;;;;;;;7.00;6.33;;;;;26.65;47.09;101239.09;146618;597;46016;-85
2021/09/26 16:41:08;;;;;;;;;11.00;9.00;;;;;26.58;47.87;101240.91;146620;686;46020;-83
2021/09/26 16:43:43;;;;;;;;;9.75;8.00;;;;;26.52;48.23;101242.72;146617;691;46016;-84
2021/09/26 16:46:21;;;;;;;;;7.00;6.00;;;;;26.40;48.23;101238.34;146626;567;45022;-83
2021/09/26 16:48:55;;;;;;;;;9.00;8.33;;;;;26.26;47.78;101239.31;146616;630;46016;-84
2021/09/26 16:51:30;;;;;;;;;10.67;8.67;;;;;26.16;49.00;101250.84;146611;600;46020;-86
2021/09/26 16:54:04;;;;;;;;;9.67;8.00;;;;;26.09;48.60;101248.25;146618;647;46010;-83
2021/09/26 16:56:38;;;;;;;;;7.00;7.00;;;;;25.94;51.24;101258.03;146620;576;46020;-84
2021/09/26 16:59:12;;;;;;;;;7.67;7.67;;;;;25.76;51.14;101251.00;146618;605;47010;-83
2021/09/26 17:01:46;;;;;;;;;7.67;7.00;;;;;25.62;49.41;101258.09;146620;621;46020;-84
2021/09/26 17:04:23;;;;;;;;;9.67;9.00;;;;;25.54;50.06;101255.44;146619;581;46010;-84
2021/09/26 17:06:57;;;;;;;;;24.00;23.00;;;;;25.43;51.36;101254.59;146621;640;47008;-83
2021/09/26 17:09:31;;;;;;;;;15.00;11.50;;;;;25.33;50.87;101256.38;146614;662;46021;-82
2021/09/26 17:12:05;;;;;;;;;11.50;11.25;;;;;25.25;50.32;101254.63;146616;645;45027;-85
2021/09/26 17:14:39;;;;;;;;;9.00;7.00;;;;;25.21;50.32;101261.69;146610;605;46016;-81
2021/09/26 17:17:13;;;;;;;;;9.50;7.25;;;;;25.17;50.01;101257.28;146616;653;46009;-86
2021/09/26 17:19:47;;;;;;;;;37.00;30.50;;;;;25.16;51.11;101254.63;146616;600;46016;-89
2021/09/26 17:22:21;;;;;;;;;50.75;41.25;;;;;25.13;50.37;101258.16;146615;620;46020;-83
2021/09/26 17:24:56;;;;;;;;;41.50;35.25;;;;;25.09;49.73;101261.66;146612;591;46011;-85
2021/09/26 17:27:29;;;;;;;;;18.00;15.50;;;;;25.09;49.39;101259.88;146616;565;46020;-84
2021/09/26 17:30:04;;;;;;;;;21.25;20.50;;;;;25.06;48.98;101262.53;146612;583;46016;-84
2021/09/26 17:32:40;;;;;;;;;36.50;31.75;;;;;25.05;48.96;101258.13;146613;627;46021;-86
2021/09/26 17:35:16;;;;;;;;;42.75;35.50;;;;;25.09;48.51;101261.66;146605;573;47010;-85
2021/09/26 17:37:49;;;;;;;;;41.00;35.00;;;;;25.11;47.96;101265.22;146614;651;46021;-84
2021/09/26 17:40:26;;;;;;;;;47.50;39.50;;;;;25.14;48.21;101267.91;146611;631;47020;-85
2021/09/26 17:43:07;;;;;;;;;41.00;34.50;;;;;25.16;48.01;101267.87;146611;582;46008;-85
2021/09/26 17:45:40;;;;;;;;;38.25;34.00;;;;;25.14;47.94;101265.25;146612;592;46016;-84
2021/09/26 17:48:15;;;;;;;;;29.25;25.75;;;;;25.09;47.43;101267.84;146613;597;46008;-84
2021/09/26 17:50:49;;;;;;;;;22.75;19.25;;;;;25.05;47.76;101271.41;146610;606;46016;-82
2021/09/26 17:53:23;;;;;;;;;14.50;14.25;;;;;24.98;47.05;101259.00;146610;571;46008;-75
2021/09/26 17:55:57;;;;;;;;;11.50;9.00;;;;;24.95;46.64;101260.75;146613;646;46031;-80
2021/09/26 17:58:31;;;;;;;;;14.75;12.00;;;;;24.91;46.76;101259.00;146620;616;46008;-80
2021/09/26 18:01:05;;;;;;;;;13.50;10.25;;;;;24.85;46.80;101260.75;146611;565;46017;-77
2021/09/26 18:03:43;;;;;;;;;13.25;11.00;;;;;24.80;46.76;101259.00;146616;698;46010;-77
2021/09/26 18:06:18;;;;;;;;;11.75;11.75;;;;;23.87;47.82;101113.91;146611;625;47010;-77
2021/09/26 18:08:53;;;;;;;;;9.75;9.50;;;;;24.73;46.97;101262.50;146611;578;46021;-77
2021/09/26 18:11:28;;;;;;;;;9.00;8.00;;;;;24.60;47.00;101253.66;146618;604;46016;-77
2021/09/26 18:14:02;;;;;;;;;8.25;7.75;;;;;24.57;46.71;101267.78;146622;661;46026;-77
2021/09/26 18:16:39;;;;;;;;;10.25;8.00;;;;;24.54;46.71;101258.94;146618;681;46016;-77
2021/09/26 18:19:14;;;;;;;;;10.50;10.00;;;;;24.48;46.71;101258.91;146620;647;46020;-77
2021/09/26 18:21:48;;;;;;;;;10.00;10.00;;;;;24.46;47.43;101260.69;146611;586;46016;-77
2021/09/26 18:24:22;;;;;;;;;8.00;7.00;;;;;24.46;46.99;101263.34;146615;571;46020;-77
2021/09/26 18:26:56;;;;;;;;;9.75;9.00;;;;;24.45;45.88;101264.22;146619;629;46010;-77
2021/09/26 18:29:30;;;;;;;;;8.33;8.33;;;;;24.37;46.45;101269.47;146625;600;46008;-77
2021/09/26 18:32:04;;;;;;;;;7.50;7.50;;;;;24.33;46.96;101263.28;146615;651;47019;-77
2021/09/26 18:34:38;;;;;;;;;11.00;8.25;;;;;24.31;46.35;101266.81;146606;579;47008;-77
2021/09/26 18:49:10;;;;;;;;;12.00;10.00;;;;;24.18;47.00;101266.75;146633;565;46023;-77
2021/09/26 18:51:45;;;;;;;;;9.25;8.75;;;;;24.16;46.42;101257.91;146611;601;46016;-78
2021/09/26 18:54:21;;;;;;;;;9.25;7.50;;;;;24.11;46.26;101261.41;146619;608;46020;-77
2021/09/26 18:56:55;;;;;;;;;12.25;10.50;;;;;24.02;46.35;101264.94;146620;660;46016;-78
2021/09/26 18:59:29;;;;;;;;;9.50;9.25;;;;;23.94;46.42;101262.22;146616;694;46008;-78
2021/09/26 19:02:06;;;;;;;;;8.75;8.75;;;;;23.88;46.70;101259.53;146620;651;46016;-78
2021/09/26 19:04:41;;;;;;;;;8.25;8.00;;;;;23.83;46.53;101261.31;146619;570;46021;-78
2021/09/26 19:07:15;;;;;;;;;8.00;7.00;;;;;23.81;46.69;101263.06;146615;644;46016;-78
2021/09/26 19:09:49;;;;;;;;;8.75;8.75;;;;;23.78;46.46;101265.69;146623;585;46020;-78
2021/09/26 19:12:23;;;;;;;;;7.25;7.25;;;;;23.74;46.58;101269.19;146620;646;46016;-77
2021/09/26 19:14:56;;;;;;;;;7.75;7.75;;;;;23.67;46.22;101268.22;146626;628;46026;-77
2021/09/26 19:17:30;;;;;;;;;5.50;5.50;;;;;23.62;46.14;101267.31;146617;639;47010;-78
2021/09/26 19:20:08;;;;;;;;;8.75;8.00;;;;;23.59;45.81;101269.94;146622;574;46021;-77
2021/09/26 19:22:43;;;;;;;;;8.75;7.50;;;;;23.56;45.94;101272.56;146616;626;46016;-78
2021/09/26 19:25:19;;;;;;;;;7.67;6.33;;;;;23.51;45.66;101269.00;146622;592;45021;-79
2021/09/26 19:27:54;;;;;;;;;6.50;6.50;;;;;23.44;45.91;101276.00;146618;588;46029;-79
2021/09/26 19:30:29;;;;;;;;;5.67;5.33;;;;;23.38;46.11;101268.03;146625;623;45020;-79
2021/09/26 19:33:03;;;;;;;;;8.00;7.00;;;;;23.37;46.77;101262.75;146619;580;46017;-78
2021/09/26 19:35:37;;;;;;;;;6.00;6.00;;;;;23.34;46.53;101260.06;146625;573;46008;-78
2021/09/26 19:38:11;;;;;;;;;6.00;6.00;;;;;23.30;46.78;101261.78;146619;600;46016;-79
2021/09/26 19:40:46;;;;;;;;;7.67;6.67;;;;;23.29;47.78;101267.97;146622;577;47008;-75
2021/09/26 19:43:21;;;;;;;;;9.00;7.00;;;;;23.27;47.22;101260.03;146617;630;46016;-78
2021/09/26 19:45:55;;;;;;;;;6.50;5.25;;;;;23.24;47.27;101262.66;146623;639;45020;-78
2021/09/26 19:48:29;;;;;;;;;9.50;6.50;;;;;23.21;47.29;101259.09;146619;574;46016;-78
2021/09/26 19:51:03;;;;;;;;;7.00;4.00;;;;;23.19;46.82;101258.19;146621;704;46026;-78
2021/09/26 19:53:38;;;;;;;;;8.00;7.33;;;;;23.17;47.05;101259.91;146619;670;46016;-78
2021/09/26 19:56:12;;;;;;;;;6.33;6.33;;;;;23.15;46.76;101253.75;146624;677;46020;-78
2021/09/26 19:58:47;;;;;;;;;5.33;5.00;;;;;23.13;46.28;101259.03;146617;577;46016;-74
2021/09/26 20:01:25;;;;;;;;;9.75;7.25;;;;;23.11;45.93;101258.09;146627;572;45022;-76
2021/09/26 20:04:01;;;;;;;;;6.33;5.00;;;;;23.08;46.10;101254.56;146620;564;46017;-76
2021/09/26 20:06:36;;;;;;;;;6.67;6.00;;;;;23.07;46.02;101258.09;146623;586;46020;-76
2021/09/26 20:09:10;;;;;;;;;8.33;6.00;;;;;23.07;46.36;101258.09;146621;576;46030;-76
2021/09/26 20:11:45;;;;;;;;;7.25;7.25;;;;;23.10;46.49;101255.47;146622;601;46020;-76
2021/09/26 20:14:19;;;;;;;;;7.50;6.25;;;;;23.11;46.44;101263.41;146620;637;46010;-76
2021/09/26 20:16:52;;;;;;;;;7.25;6.00;;;;;23.13;46.48;101260.78;146622;648;46021;-76
2021/09/26 20:19:26;;;;;;;;;7.50;6.50;;;;;23.18;46.49;101269.66;146621;574;46016;-76
2021/09/26 20:22:00;;;;;;;;;6.00;6.00;;;;;23.20;46.55;101265.25;146625;569;46006;-76
2021/09/26 20:24:35;;;;;;;;;5.00;5.00;;;;;23.22;46.71;101263.50;146618;569;47010;-76
2021/09/26 20:27:09;;;;;;;;;5.33;5.33;;;;;23.21;46.61;101267.91;146625;572;45023;-77
2021/09/26 20:29:43;;;;;;;;;8.33;6.00;;;;;23.18;46.82;101270.53;146616;573;46016;-76
2021/09/26 20:32:17;;;;;;;;;10.75;9.25;;;;;23.04;47.22;101266.88;146622;581;46021;-76
2021/09/26 20:34:51;;;;;;;;;8.33;7.67;;;;;22.92;47.01;101270.25;146619;611;46012;-76
2021/09/26 20:37:25;;;;;;;;;6.50;6.25;;;;;22.82;47.39;101266.63;146619;569;46020;-76
2021/09/26 20:39:59;;;;;;;;;9.00;6.67;;;;;22.79;47.37;101268.38;146616;573;46017;-76
2021/09/26 20:42:33;;;;;;;;;6.67;6.67;;;;;22.75;47.29;101266.59;146624;575;46020;-82
2021/09/26 20:45:11;;;;;;;;;7.00;6.00;;;;;22.72;47.06;101266.56;146621;642;46010;-81
2021/09/26 20:47:45;;;;;;;;;7.33;6.67;;;;;22.67;47.53;101270.87;146620;570;46021;-80
2021/09/26 20:50:19;;;;;;;;;7.25;7.00;;;;;22.61;47.96;101269.06;146620;578;46010;-82
2021/09/26 20:52:54;;;;;;;;;11.75;8.00;;;;;22.53;48.03;101266.34;146618;626;46020;-81
2021/09/26 20:55:30;;;;;;;;;12.25;11.25;;;;;22.43;48.39;101259.19;146618;694;47021;-82
2021/09/26 20:58:04;;;;;;;;;8.75;7.25;;;;;22.36;48.70;101268.78;146613;725;46020;-78
2021/09/26 21:00:38;;;;;;;;;11.25;10.25;;;;;22.33;48.40;101274.03;146621;658;46010;-78
2021/09/26 21:03:13;;;;;;;;;9.00;9.00;;;;;22.33;48.51;101266.09;146615;564;46020;-77
2021/09/26 21:05:48;;;;;;;;;5.75;5.75;;;;;22.34;47.95;101275.84;146619;607;46016;-77
2021/09/26 21:08:22;;;;;;;;;7.25;6.50;;;;;22.36;48.17;101267.91;146620;592;46020;-77
2021/09/26 21:10:56;;;;;;;;;9.75;9.00;;;;;22.30;47.98;101265.19;146617;599;46016;-77
2021/09/26 21:13:30;;;;;;;;;7.00;6.25;;;;;22.35;48.41;101269.66;146620;649;47012;-79
2021/09/26 21:16:04;;;;;;;;;5.50;5.50;;;;;22.34;48.21;101262.62;146620;594;45905;-78
2021/09/26 21:18:38;;;;;;;;;7.50;6.75;;;;;22.35;48.34;101261.75;146623;583;46021;-80
2021/09/26 21:21:12;;;;;;;;;8.00;7.00;;;;;22.36;48.31;101263.50;146616;696;47010;-79
2021/09/26 21:23:46;;;;;;;;;8.00;7.00;;;;;22.39;48.23;101254.72;146622;570;46008;-80
2021/09/26 21:26:20;;;;;;;;;7.25;7.00;;;;;22.43;47.87;101259.19;146617;573;46016;-78
2021/09/26 21:28:54;;;;;;;;;7.00;7.00;;;;;22.46;48.20;101267.16;146622;662;46020;-79
2021/09/26 21:31:28;;;;;;;;;6.25;5.75;;;;;22.48;47.75;101260.13;146619;622;46016;-79
2021/09/26 21:34:02;;;;;;;;;5.00;5.00;;;;;22.50;47.83;101261.03;146620;588;46020;-79
2021/09/26 21:36:37;;;;;;;;;6.75;5.75;;;;;22.47;47.59;101255.72;146619;580;46016;-81
2021/09/26 21:39:11;;;;;;;;;6.00;6.00;;;;;22.45;47.54;101260.09;146620;654;46021;-74
2021/09/26 21:41:45;;;;;;;;;5.50;5.50;;;;;22.41;47.64;101254.75;146612;624;47016;-74
2021/09/26 21:44:18;;;;;;;;;5.00;5.00;;;;;22.36;47.74;101267.91;146624;710;46008;-74
2021/09/26 21:46:52;;;;;;;;;7.75;6.00;;;;;22.30;47.53;101259.91;146616;597;46016;-75
2021/09/26 21:49:26;;;;;;;;;7.50;6.25;;;;;22.23;47.67;101268.63;146620;565;46026;-75
2021/09/26 21:52:00;;;;;;;;;7.67;6.33;;;;;22.17;48.16;101260.63;146619;601;47010;-75
2021/09/26 21:54:34;;;;;;;;;7.00;6.00;;;;;22.04;47.74;101257.81;146622;587;46021;-76
2021/09/26 21:57:08;;;;;;;;;5.67;5.67;;;;;21.96;47.91;101259.44;146619;631;46019;-74
2021/09/26 21:59:42;;;;;;;;;7.75;6.75;;;;;20.96;47.83;101088.31;146623;572;47010;-78
2021/09/26 22:02:16;;;;;;;;;7.67;6.00;;;;;21.88;48.37;101258.50;146617;564;47010;-73
2021/09/26 22:04:50;;;;;;;;;7.00;5.25;;;;;21.85;48.21;101259.31;146623;570;46008;-75
2021/09/26 22:07:34;;;;;;;;;5.75;5.00;;;;;21.80;48.45;101262.75;146615;661;46017;-73
2021/09/26 22:10:09;;;;;;;;;6.25;6.25;;;;;21.72;48.82;101257.37;146622;566;46020;-74
2021/09/26 22:12:43;;;;;;;;;8.50;7.00;;;;;21.62;49.64;101248.47;146617;582;46029;-74
2021/09/26 22:15:18;;;;;;;;;5.75;5.75;;;;;21.49;50.83;101251.75;146617;565;46021;-74
2021/09/26 22:17:54;;;;;;;;;8.25;7.50;;;;;21.39;50.42;101253.38;146620;570;46016;-75
2021/09/26 22:20:31;;;;;;;;;8.25;6.50;;;;;21.35;50.18;101248.00;146620;605;46020;-76
2021/09/26 22:23:06;;;;;;;;;6.00;5.50;;;;;21.38;50.22;101245.44;146618;637;46017;-75
2021/09/26 22:25:43;;;;;;;;;6.00;6.00;;;;;21.40;49.86;101241.97;146614;677;47008;-73
2021/09/26 22:28:20;;;;;;;;;6.00;6.00;;;;;21.41;49.93;101238.47;146616;571;46016;-72
2021/09/26 22:30:55;;;;;;;;;8.50;6.00;;;;;21.42;49.33;101240.22;146622;637;46021;-70
2021/09/26 22:33:29;;;;;;;;;6.75;5.50;;;;;21.42;48.97;101240.22;146620;571;46016;-74
2021/09/26 22:36:03;;;;;;;;;6.00;6.00;;;;;21.45;48.27;101244.66;146618;596;46020;-75
2021/09/26 22:38:38;;;;;;;;;6.50;5.50;;;;;21.45;49.03;101245.56;146617;577;46010;-74
2021/09/26 22:41:13;;;;;;;;;6.00;6.00;;;;;21.48;48.31;101250.00;146620;642;46020;-74